πŸ“Š DonnΓ©es MΓ©tΓ©o - Bordeaux

Total mesures

14,425

TempΓ©rature moyenne

18.9Β°C

Temp. Min/Max

2.9Β° / 42.4Β°

HumiditΓ© moyenne

64.9%

Pression moyenne

1014.7 hPa
enregistrements
ID Date/Heure Temp (Β°C) HumiditΓ© (%) Pression (hPa) Tendance LuminositΓ© (lux) Situation
11025 07/07/2026 07:15 28.0 30.0 1,015.7 β†’ Stable 45,552 conditions-neutrales-ou-non-definies
11024 07/07/2026 06:45 26.8 33.0 1,015.4 β†’ Stable 36,108 conditions-neutrales-ou-non-definies
11023 07/07/2026 06:15 24.5 42.0 1,015.4 β†’ Stable 23,328 confortablement-chaud (approx.)
11022 07/07/2026 06:00 23.9 43.0 1,015.4 β†’ Stable 18,708 conditions-neutrales-ou-non-definies
11021 07/07/2026 05:45 23.5 45.0 1,015.0 β†’ Stable 15,276 conditions-neutrales-ou-non-definies
11020 07/07/2026 05:15 21.9 47.0 1,015.0 β†’ Stable 5,736 frais-stable
11019 07/07/2026 04:45 21.6 45.0 1,014.7 β†’ Stable 1,020 frais-stable
11018 07/07/2026 04:15 22.4 42.0 1,014.7 β†’ Stable 0 frais-stable
11017 07/07/2026 04:00 22.5 41.0 1,014.7 β†’ Stable 0 frais-stable
11016 07/07/2026 03:45 22.7 41.0 1,014.6 β†’ Stable 0 frais-stable
11015 07/07/2026 03:15 23.3 38.0 1,014.6 β†’ Stable 0 conditions-neutrales-ou-non-definies
11014 07/07/2026 03:00 23.4 37.0 1,014.6 β†’ Stable 0 conditions-neutrales-ou-non-definies
11013 07/07/2026 02:45 23.5 37.0 1,014.6 β†’ Stable 0 conditions-neutrales-ou-non-definies
11012 07/07/2026 02:15 24.5 34.0 1,014.6 β†’ Stable 0 conditions-neutrales-ou-non-definies
11011 07/07/2026 01:45 26.0 29.0 1,014.7 β†’ Stable 0 conditions-neutrales-ou-non-definies
11010 07/07/2026 01:15 26.7 27.0 1,014.3 β†’ Stable 0 conditions-neutrales-ou-non-definies
11009 07/07/2026 00:45 27.2 26.0 1,014.5 β†’ Stable 0 conditions-neutrales-ou-non-definies
11008 07/07/2026 00:15 28.4 24.0 1,014.5 β†’ Stable 0 conditions-neutrales-ou-non-definies
11007 06/07/2026 23:45 29.2 22.0 1,014.5 β†’ Stable 0 conditions-neutrales-ou-non-definies
11006 06/07/2026 23:15 29.5 22.0 1,014.5 β†’ Stable 0 conditions-neutrales-ou-non-definies
11005 06/07/2026 22:45 29.9 22.0 1,014.3 β†’ Stable 0 conditions-neutrales-ou-non-definies
11004 06/07/2026 22:15 31.1 19.0 1,014.3 β†’ Stable 0 chaleur-seche
11003 06/07/2026 21:45 31.2 19.0 1,014.0 β†’ Stable 0 chaleur-seche
11002 06/07/2026 21:15 31.3 19.0 1,014.0 β†’ Stable 0 chaleur-seche
11001 06/07/2026 20:45 32.2 17.0 1,013.6 β†’ Stable 0 chaleur-seche
11000 06/07/2026 20:15 33.9 15.0 1,013.6 β†’ Stable 0 chaleur-seche
10999 06/07/2026 19:45 35.0 16.0 1,013.6 β†’ Stable 1,296 chaleur-seche
10998 06/07/2026 19:15 36.7 13.0 1,013.6 β†’ Stable 8,700 chaleur-seche
10997 06/07/2026 18:45 37.4 13.0 1,013.7 β†’ Stable 16,848 chaleur-seche
10996 06/07/2026 18:15 38.1 10.0 1,013.7 β†’ Stable 27,960 chaleur-seche
10995 06/07/2026 17:45 38.4 10.0 1,014.1 β†’ Stable 37,968 chaleur-seche
10994 06/07/2026 17:15 38.7 10.0 1,014.1 β†’ Stable 49,728 chaleur-seche
10993 06/07/2026 16:45 38.9 9.0 1,014.5 β†’ Stable 59,820 chaleur-seche
10992 06/07/2026 16:15 38.9 9.0 1,014.3 β†’ Stable 69,348 chaleur-seche
10991 06/07/2026 15:45 38.9 9.0 1,014.9 β†’ Stable 77,868 chaleur-seche
10990 06/07/2026 15:15 39.1 10.0 1,014.9 β†’ Stable 85,368 chaleur-seche
10989 06/07/2026 14:45 39.0 10.0 1,015.6 β†’ Stable 91,944 chaleur-seche
10988 06/07/2026 14:15 38.9 10.0 1,015.6 β†’ Stable 97,500 chaleur-seche
10987 06/07/2026 13:45 38.6 10.0 1,016.2 β†’ Stable 101,940 chaleur-seche
10986 06/07/2026 13:15 38.1 11.0 1,016.4 β†’ Stable 105,180 chaleur-seche
10985 06/07/2026 12:45 37.7 12.0 1,017.0 β†’ Stable 107,124 chaleur-seche
10984 06/07/2026 12:15 37.1 13.0 1,017.0 β†’ Stable 107,772 chaleur-seche
10983 06/07/2026 11:45 36.3 15.0 1,017.6 β†’ Stable 107,124 chaleur-seche
10982 06/07/2026 11:15 35.8 17.0 1,017.6 β†’ Stable 105,180 chaleur-seche
10981 06/07/2026 10:45 34.9 19.0 1,018.1 β†’ Stable 102,036 chaleur-seche
10980 06/07/2026 10:15 34.2 22.0 1,018.1 β†’ Stable 97,680 chaleur-seche
10979 06/07/2026 09:45 33.2 24.0 1,018.3 β†’ Stable 92,124 chaleur-seche
10978 06/07/2026 09:15 32.1 27.0 1,018.3 β†’ Stable 85,560 chaleur-seche
10977 06/07/2026 08:45 31.2 29.0 1,018.4 β†’ Stable 78,060 chaleur-seche
10976 06/07/2026 08:15 30.5 31.0 1,018.4 β†’ Stable 66,756 chaleur-seche
10975 06/07/2026 07:45 29.6 33.0 1,018.4 β†’ Stable 57,504 conditions-neutrales-ou-non-definies
10974 06/07/2026 07:15 27.5 38.0 1,018.4 β†’ Stable 44,820 conditions-neutrales-ou-non-definies
10973 06/07/2026 07:00 26.7 40.0 1,018.4 β†’ Stable 39,720 confortablement-chaud (approx.)
10972 06/07/2026 06:45 26.0 42.0 1,018.4 β†’ Stable 35,556 confortablement-chaud (approx.)
10971 06/07/2026 06:15 24.1 49.0 1,018.4 β†’ Stable 22,872 confortablement-chaud (approx.)
10970 06/07/2026 06:00 23.4 50.0 1,018.4 β†’ Stable 18,420 conditions-neutrales-ou-non-definies
10969 06/07/2026 05:45 22.9 51.0 1,018.4 β†’ Stable 15,000 frais-stable
10968 06/07/2026 05:15 22.5 53.0 1,018.4 β†’ Stable 6,024 frais-stable
10967 06/07/2026 05:00 22.3 54.0 1,018.4 β†’ Stable 3,240 frais-stable
10966 06/07/2026 04:45 22.2 54.0 1,018.2 β†’ Stable 1,200 frais-stable
10965 06/07/2026 04:15 22.6 51.0 1,018.2 β†’ Stable 0 frais-stable
10964 06/07/2026 04:00 22.8 50.0 1,018.2 β†’ Stable 0 frais-stable
10963 06/07/2026 03:45 22.9 49.0 1,018.2 β†’ Stable 0 frais-stable
10962 06/07/2026 03:15 23.2 48.0 1,018.2 β†’ Stable 0 conditions-neutrales-ou-non-definies
10961 06/07/2026 03:00 23.4 48.0 1,018.2 β†’ Stable 0 conditions-neutrales-ou-non-definies
10960 06/07/2026 02:45 23.5 48.0 1,018.2 β†’ Stable 0 conditions-neutrales-ou-non-definies
10959 06/07/2026 02:15 24.2 46.0 1,018.2 β†’ Stable 0 confortablement-chaud (approx.)
10958 06/07/2026 01:45 25.3 41.0 1,018.2 β†’ Stable 0 confortablement-chaud (approx.)
10957 06/07/2026 01:15 25.5 41.0 1,018.2 β†’ Stable 0 confortablement-chaud (approx.)
10956 06/07/2026 00:45 25.4 43.0 1,018.3 β†’ Stable 0 confortablement-chaud (approx.)
10955 06/07/2026 00:15 25.0 47.0 1,018.3 β†’ Stable 0 confortablement-chaud (approx.)
10954 05/07/2026 23:45 25.4 47.0 1,018.6 β†’ Stable 0 confortablement-chaud (approx.)
10953 05/07/2026 23:15 26.1 49.0 1,018.5 β†’ Stable 0 confortablement-chaud (approx.)
10952 05/07/2026 22:45 26.8 44.0 1,018.5 β†’ Stable 0 confortablement-chaud (approx.)
10951 05/07/2026 22:15 27.2 46.0 1,018.5 β†’ Stable 0 confortablement-chaud (approx.)
10950 05/07/2026 21:45 27.7 45.0 1,018.4 β†’ Stable 0 confortablement-chaud (approx.)
10949 05/07/2026 21:15 28.5 41.0 1,018.4 β†’ Stable 0 confortablement-chaud (approx.)
10948 05/07/2026 20:45 30.1 36.0 1,017.9 β†’ Stable 0 chaleur-seche
10947 05/07/2026 20:15 31.0 34.0 1,017.9 β†’ Stable 0 chaleur-seche
10946 05/07/2026 19:45 33.1 21.0 1,017.7 β†’ Stable 1,392 chaleur-seche
10945 05/07/2026 19:15 34.6 19.0 1,017.7 β†’ Stable 8,616 chaleur-seche
10944 05/07/2026 18:45 35.2 17.0 1,017.8 β†’ Stable 16,476 chaleur-seche
10943 05/07/2026 18:15 35.9 17.0 1,017.8 β†’ Stable 27,312 chaleur-seche
10942 05/07/2026 17:45 36.2 16.0 1,017.9 β†’ Stable 37,032 chaleur-seche
10941 05/07/2026 17:15 36.5 17.0 1,017.9 β†’ Stable 48,792 chaleur-seche
10940 05/07/2026 16:45 36.8 16.0 1,018.2 β†’ Stable 58,704 chaleur-seche
10939 05/07/2026 16:15 36.9 14.0 1,018.2 β†’ Stable 69,168 chaleur-seche
10938 05/07/2026 15:45 37.0 14.0 1,019.0 β†’ Stable 77,964 chaleur-seche
10937 05/07/2026 15:15 36.7 15.0 1,019.0 β†’ Stable 85,464 chaleur-seche
10936 05/07/2026 14:45 36.6 15.0 1,019.7 β†’ Stable 92,040 chaleur-seche
10935 05/07/2026 14:15 36.3 15.0 1,019.7 β†’ Stable 97,596 chaleur-seche
10934 05/07/2026 13:45 36.0 15.0 1,020.6 β†’ Stable 102,036 chaleur-seche
10933 05/07/2026 13:15 35.3 16.0 1,020.7 β†’ Stable 105,180 chaleur-seche
10932 05/07/2026 12:45 35.0 16.0 1,021.3 β†’ Stable 107,220 chaleur-seche
10931 05/07/2026 12:15 34.6 16.0 1,021.3 β†’ Stable 107,868 chaleur-seche
10930 05/07/2026 11:45 34.0 17.0 1,021.9 β†’ Stable 107,220 chaleur-seche
10929 05/07/2026 11:15 33.5 18.0 1,021.9 β†’ Stable 105,276 chaleur-seche
10928 05/07/2026 11:00 33.1 19.0 1,022.1 β†’ Stable 103,884 chaleur-seche
10927 05/07/2026 10:45 32.7 19.0 1,022.4 β†’ Stable 102,132 chaleur-seche
10926 05/07/2026 10:15 32.1 20.0 1,022.4 β†’ Stable 97,776 chaleur-seche